createdAt,value
2017-11-29T00:00:17.970Z,2.5
2017-11-29T00:01:24.611Z,2.5
2017-11-29T00:02:31.802Z,2.5
2017-11-29T00:03:38.713Z,2.5
2017-11-29T00:04:45.901Z,2.5
2017-11-29T00:05:52.818Z,2.5
2017-11-29T00:07:00.004Z,2.5
2017-11-29T00:08:07.190Z,2.5
2017-11-29T00:09:14.383Z,2.5
2017-11-29T00:10:21.572Z,2.5
2017-11-29T00:11:28.483Z,2.4
2017-11-29T00:12:35.388Z,2.4
2017-11-29T00:13:42.026Z,2.4
2017-11-29T00:14:48.938Z,2.4
2017-11-29T00:15:56.123Z,2.4
2017-11-29T00:17:03.034Z,2.4
2017-11-29T00:18:10.226Z,2.4
2017-11-29T00:19:17.406Z,2.3
2017-11-29T00:20:24.324Z,2.3
2017-11-29T00:21:30.959Z,2.3
2017-11-29T00:22:37.882Z,2.2
2017-11-29T00:23:44.789Z,2.2
2017-11-29T00:24:51.977Z,2.1
2017-11-29T00:25:58.889Z,2.1
2017-11-29T00:27:06.074Z,2.1
2017-11-29T00:28:12.987Z,2.1
2017-11-29T00:29:20.172Z,2.1
2017-11-29T00:30:27.359Z,2
2017-11-29T00:31:34.266Z,2
2017-11-29T00:32:41.456Z,2
2017-11-29T00:33:48.426Z,1.9
2017-11-29T00:34:56.013Z,1.9
2017-11-29T00:36:02.925Z,1.9
2017-11-29T00:37:09.846Z,1.8
2017-11-29T00:38:17.035Z,1.8
2017-11-29T00:39:24.221Z,1.8
2017-11-29T00:40:31.408Z,1.8
2017-11-29T00:41:38.595Z,1.7
2017-11-29T00:42:45.506Z,1.7
2017-11-29T00:43:52.693Z,1.7
2017-11-29T00:44:59.882Z,1.7
2017-11-29T00:46:07.069Z,1.6
2017-11-29T00:47:13.710Z,1.6
2017-11-29T00:48:20.897Z,1.6
2017-11-29T00:49:28.082Z,1.6
2017-11-29T00:50:35.263Z,1.6
2017-11-29T00:51:42.452Z,1.6
2017-11-29T00:52:49.649Z,1.6
2017-11-29T00:53:56.835Z,1.6
2017-11-29T00:55:04.020Z,1.5
2017-11-29T00:56:10.929Z,1.5
2017-11-29T00:57:18.116Z,1.5
2017-11-29T00:58:25.023Z,1.5
2017-11-29T00:59:32.213Z,1.5
2017-11-29T01:00:39.399Z,1.5
2017-11-29T01:01:46.051Z,1.4
2017-11-29T01:02:52.952Z,1.4
2017-11-29T01:03:59.872Z,1.4
2017-11-29T01:05:06.785Z,1.4
2017-11-29T01:06:13.692Z,1.4
2017-11-29T01:07:20.883Z,1.4
2017-11-29T01:08:28.073Z,1.4
2017-11-29T01:09:35.260Z,1.4
2017-11-29T01:10:42.447Z,1.4
2017-11-29T01:11:49.633Z,1.4
2017-11-29T01:12:56.824Z,1.4
2017-11-29T01:14:03.735Z,1.4
2017-11-29T01:15:10.646Z,1.4
2017-11-29T01:16:17.835Z,1.4
2017-11-29T01:17:25.026Z,1.4
2017-11-29T01:18:31.933Z,1.4
2017-11-29T01:19:39.120Z,1.4
2017-11-29T01:20:46.308Z,1.4
2017-11-29T01:21:53.217Z,1.4
2017-11-29T01:23:00.404Z,1.4
2017-11-29T01:24:07.589Z,1.4
2017-11-29T01:25:14.499Z,1.4
2017-11-29T01:26:21.686Z,1.4
2017-11-29T01:27:28.876Z,1.4
2017-11-29T01:28:35.780Z,1.4
2017-11-29T01:29:42.978Z,1.3
2017-11-29T01:30:49.888Z,1.3
2017-11-29T01:31:56.790Z,1.3
2017-11-29T01:33:03.981Z,1.3
2017-11-29T01:34:10.893Z,1.3
2017-11-29T01:35:17.807Z,1.3
2017-11-29T01:36:24.719Z,1.3
2017-11-29T01:37:31.671Z,1.3
2017-11-29T01:38:38.573Z,1.2
2017-11-29T01:39:45.769Z,1.2
2017-11-29T01:40:52.951Z,1.2
2017-11-29T01:41:59.863Z,1.2
2017-11-29T01:43:07.050Z,1.1
2017-11-29T01:44:14.240Z,1.1
2017-11-29T01:45:21.468Z,1.1
2017-11-29T01:46:28.374Z,1.1
2017-11-29T01:47:35.561Z,1.1
2017-11-29T01:48:42.476Z,1.1
2017-11-29T01:49:49.676Z,1
2017-11-29T01:50:56.861Z,1
2017-11-29T01:52:04.053Z,1
2017-11-29T01:53:11.259Z,1
2017-11-29T01:54:18.447Z,1
2017-11-29T01:55:25.632Z,1
2017-11-29T01:56:32.818Z,1.1
2017-11-29T01:57:40.011Z,1
2017-11-29T01:58:46.642Z,1.1
2017-11-29T01:59:53.559Z,1.1
2017-11-29T02:01:00.469Z,1.1
2017-11-29T02:02:07.404Z,1.1
2017-11-29T02:03:14.317Z,1.2
2017-11-29T02:04:21.501Z,1.2
2017-11-29T02:05:28.689Z,1.2
2017-11-29T02:06:35.877Z,1.2
2017-11-29T02:07:42.794Z,1.2
2017-11-29T02:08:49.971Z,1.2
2017-11-29T02:09:56.607Z,1.2
2017-11-29T02:11:03.813Z,1.2
2017-11-29T02:12:11.015Z,1.2
2017-11-29T02:13:17.643Z,1.2
2017-11-29T02:14:24.830Z,1.2
2017-11-29T02:15:31.738Z,1.2
2017-11-29T02:16:38.965Z,1.2
2017-11-29T02:17:46.140Z,1.3
2017-11-29T02:18:53.334Z,1.3
2017-11-29T02:20:00.242Z,1.3
2017-11-29T02:21:07.427Z,1.3
2017-11-29T02:22:14.825Z,1.3
2017-11-29T02:23:21.462Z,1.3
2017-11-29T02:24:28.371Z,1.2
2017-11-29T02:25:35.279Z,1.3
2017-11-29T02:26:42.192Z,1.3
2017-11-29T02:27:49.377Z,1.3
2017-11-29T02:28:56.605Z,1.3
2017-11-29T02:30:03.787Z,1.3
2017-11-29T02:31:10.702Z,1.3
2017-11-29T02:32:17.893Z,1.3
2017-11-29T02:33:25.071Z,1.3
2017-11-29T02:34:31.986Z,1.3
2017-11-29T02:35:39.176Z,1.3
2017-11-29T02:36:46.113Z,1.3
2017-11-29T02:37:53.303Z,1.3
2017-11-29T02:39:00.210Z,1.3
2017-11-29T02:40:07.146Z,1.3
2017-11-29T02:41:13.783Z,1.3
2017-11-29T02:42:20.697Z,1.3
2017-11-29T02:43:27.640Z,1.3
2017-11-29T02:50:37.550Z,1.3
2017-11-29T02:51:44.487Z,1.3
2017-11-29T02:52:51.427Z,1.3
2017-11-29T02:53:58.399Z,1.3
2017-11-29T02:55:05.605Z,1.3
2017-11-29T02:56:12.809Z,1.3
2017-11-29T02:57:19.758Z,1.3
2017-11-29T02:58:26.666Z,1.3
2017-11-29T02:59:33.313Z,1.2
2017-11-29T03:00:40.500Z,1.2
2017-11-29T03:01:47.414Z,1.2
2017-11-29T03:02:54.610Z,1.2
2017-11-29T03:04:01.797Z,1.2
2017-11-29T03:05:08.705Z,1.2
2017-11-29T03:06:15.894Z,1.1
2017-11-29T03:07:22.805Z,1.2
2017-11-29T03:08:29.991Z,1.2
2017-11-29T03:09:37.178Z,1.1
2017-11-29T03:10:44.093Z,1.1
2017-11-29T03:11:51.278Z,1.1
2017-11-29T03:12:58.468Z,1.1
2017-11-29T03:14:05.376Z,1.1
2017-11-29T03:15:12.780Z,1.1
2017-11-29T03:16:19.969Z,1.1
2017-11-29T03:17:27.157Z,1.1
2017-11-29T03:18:34.065Z,1.1
2017-11-29T03:19:40.982Z,1.1
2017-11-29T03:20:48.169Z,1.1
2017-11-29T03:21:55.077Z,1.1
2017-11-29T03:23:02.261Z,1.1
2017-11-29T03:24:09.178Z,1.1
2017-11-29T03:25:16.362Z,1.1
2017-11-29T03:26:23.552Z,1.1
2017-11-29T03:27:30.740Z,1.1
2017-11-29T03:28:37.647Z,1.1
2017-11-29T03:29:44.837Z,1.1
2017-11-29T03:30:52.025Z,1.1
2017-11-29T03:31:59.234Z,1.1
2017-11-29T03:33:06.421Z,1.1
2017-11-29T03:34:13.339Z,1.1
2017-11-29T03:35:20.245Z,1.1
2017-11-29T03:36:27.435Z,1.1
2017-11-29T03:37:34.350Z,1.1
2017-11-29T03:38:41.543Z,1.2
2017-11-29T03:39:48.720Z,1.1
2017-11-29T03:40:55.632Z,1.2
2017-11-29T03:42:02.568Z,1.2
2017-11-29T03:43:09.766Z,1.2
2017-11-29T03:44:16.954Z,1.2
2017-11-29T03:45:24.139Z,1.2
2017-11-29T03:46:31.048Z,1.2
2017-11-29T03:47:38.233Z,1.3
2017-11-29T03:48:45.425Z,1.3
2017-11-29T03:49:52.608Z,1.3
2017-11-29T03:50:59.525Z,1.3
2017-11-29T03:52:06.427Z,1.3
2017-11-29T03:53:13.610Z,1.3
2017-11-29T03:54:20.801Z,1.3
2017-11-29T03:55:27.985Z,1.3
2017-11-29T03:56:35.437Z,1.3
2017-11-29T03:57:42.624Z,1.3
2017-11-29T03:58:49.527Z,1.3
2017-11-29T03:59:56.713Z,1.4
2017-11-29T04:01:03.630Z,1.4
2017-11-29T04:02:10.819Z,1.4
2017-11-29T04:03:18.030Z,1.3
2017-11-29T04:04:25.216Z,1.3
2017-11-29T04:05:32.401Z,1.3
2017-11-29T04:06:39.588Z,1.4
2017-11-29T04:07:46.775Z,1.4
2017-11-29T04:08:53.963Z,1.4
2017-11-29T04:10:01.148Z,1.3
2017-11-29T04:11:08.063Z,1.3
2017-11-29T04:12:14.987Z,1.3
2017-11-29T04:13:21.904Z,1.3
2017-11-29T04:14:29.089Z,1.3
2017-11-29T04:15:36.279Z,1.3
2017-11-29T04:16:43.462Z,1.4
2017-11-29T04:17:50.649Z,1.4
2017-11-29T04:18:57.833Z,1.4
2017-11-29T04:20:05.017Z,1.4
2017-11-29T04:21:11.925Z,1.4
2017-11-29T04:22:19.113Z,1.4
2017-11-29T04:23:26.299Z,1.4
2017-11-29T04:24:33.504Z,1.4
2017-11-29T04:25:40.698Z,1.4
2017-11-29T04:26:47.605Z,1.4
2017-11-29T04:27:54.792Z,1.5
2017-11-29T04:29:01.987Z,1.4
2017-11-29T04:30:09.172Z,1.5
2017-11-29T04:31:16.363Z,1.5
2017-11-29T04:32:23.549Z,1.5
2017-11-29T04:33:30.762Z,1.5
2017-11-29T04:34:37.947Z,1.5
2017-11-29T04:35:45.144Z,1.5
2017-11-29T04:36:52.339Z,1.5
2017-11-29T04:37:59.526Z,1.5
2017-11-29T04:39:06.967Z,1.6
2017-11-29T04:40:14.152Z,1.6
2017-11-29T04:41:21.366Z,1.6
2017-11-29T04:42:28.556Z,1.6
2017-11-29T04:43:35.466Z,1.6
2017-11-29T04:44:42.894Z,1.6
2017-11-29T04:45:49.789Z,1.6
2017-11-29T04:46:56.996Z,1.6
2017-11-29T04:48:04.186Z,1.6
2017-11-29T04:49:11.368Z,1.6
2017-11-29T04:50:18.282Z,1.6
2017-11-29T04:51:25.471Z,1.6
2017-11-29T04:52:32.655Z,1.6
2017-11-29T04:53:54.495Z,1.6
2017-11-29T04:55:01.679Z,1.6
2017-11-29T04:56:08.639Z,1.6
2017-11-29T04:57:15.554Z,1.7
2017-11-29T04:58:22.470Z,1.6
2017-11-29T04:59:29.403Z,1.6
2017-11-29T05:00:36.590Z,1.6
2017-11-29T05:01:43.499Z,1.6
2017-11-29T05:02:50.408Z,1.6
2017-11-29T05:03:57.594Z,1.6
2017-11-29T05:05:04.786Z,1.7
2017-11-29T05:06:11.978Z,1.7
2017-11-29T05:07:19.196Z,1.7
2017-11-29T05:08:26.389Z,1.6
2017-11-29T05:09:33.573Z,1.6
2017-11-29T05:10:40.482Z,1.6
2017-11-29T05:11:47.675Z,1.6
2017-11-29T05:12:54.860Z,1.6
2017-11-29T05:14:01.773Z,1.6
2017-11-29T05:15:08.970Z,1.6
2017-11-29T05:16:15.886Z,1.6
2017-11-29T05:17:23.076Z,1.6
2017-11-29T05:18:29.989Z,1.6
2017-11-29T05:19:37.176Z,1.5
2017-11-29T05:20:44.086Z,1.5
2017-11-29T05:21:51.271Z,1.5
2017-11-29T05:22:58.191Z,1.5
2017-11-29T05:24:05.622Z,1.5
2017-11-29T05:25:12.540Z,1.5
2017-11-29T05:26:19.727Z,1.4
2017-11-29T05:27:26.917Z,1.4
2017-11-29T05:28:34.102Z,1.4
2017-11-29T05:29:41.311Z,1.4
2017-11-29T05:30:48.216Z,1.4
2017-11-29T05:31:55.403Z,1.4
2017-11-29T05:33:02.609Z,1.4
2017-11-29T05:34:09.537Z,1.4
2017-11-29T05:35:16.966Z,1.4
2017-11-29T05:36:24.149Z,1.4
2017-11-29T05:37:31.335Z,1.4
2017-11-29T05:38:38.522Z,1.4
2017-11-29T05:39:45.721Z,1.4
2017-11-29T05:40:52.940Z,1.4
2017-11-29T05:42:00.125Z,1.4
2017-11-29T05:43:07.312Z,1.4
2017-11-29T05:44:14.220Z,1.4
2017-11-29T05:45:21.383Z,1.4
2017-11-29T05:46:28.573Z,1.4
2017-11-29T05:47:35.758Z,1.4
2017-11-29T05:48:42.679Z,1.3
2017-11-29T05:49:49.866Z,1.3
2017-11-29T05:50:56.758Z,1.3
2017-11-29T05:52:03.947Z,1.3
2017-11-29T05:53:11.135Z,1.3
2017-11-29T05:54:18.349Z,1.3
2017-11-29T05:55:25.522Z,1.3
2017-11-29T05:56:32.960Z,1.3
2017-11-29T05:57:40.145Z,1.3
2017-11-29T05:58:47.333Z,1.3
2017-11-29T05:59:54.521Z,1.3
2017-11-29T06:01:01.712Z,1.2
2017-11-29T06:02:08.898Z,1.2
2017-11-29T06:03:16.080Z,1.2
2017-11-29T06:04:23.279Z,1.2
2017-11-29T06:05:30.453Z,1.2
2017-11-29T06:06:37.639Z,1.2
2017-11-29T06:07:44.559Z,1.2
2017-11-29T06:08:51.746Z,1.1
2017-11-29T06:09:58.932Z,1.1
2017-11-29T06:11:05.841Z,1.1
2017-11-29T06:12:12.754Z,1.1
2017-11-29T06:13:19.670Z,1
2017-11-29T06:14:26.852Z,1
2017-11-29T06:15:34.040Z,1.1
2017-11-29T06:16:41.241Z,1
2017-11-29T06:17:48.153Z,1
2017-11-29T06:18:55.343Z,1
2017-11-29T06:20:02.254Z,1
2017-11-29T06:21:09.439Z,1
2017-11-29T06:22:16.355Z,1
2017-11-29T06:23:23.270Z,1
2017-11-29T06:24:30.452Z,1
2017-11-29T06:25:37.361Z,1
2017-11-29T06:26:43.995Z,1
2017-11-29T06:27:51.183Z,1
2017-11-29T06:28:58.104Z,1
2017-11-29T06:30:05.290Z,1
2017-11-29T06:31:12.200Z,1
2017-11-29T06:32:19.116Z,1
2017-11-29T06:33:26.322Z,1
2017-11-29T06:34:33.510Z,1
2017-11-29T06:35:40.695Z,1
2017-11-29T06:36:47.614Z,1.1
2017-11-29T06:37:54.803Z,1.1
2017-11-29T06:39:01.715Z,1.1
2017-11-29T06:40:08.628Z,1
2017-11-29T06:41:15.309Z,1.1
2017-11-29T06:42:22.492Z,1.1
2017-11-29T06:43:29.675Z,1.1
2017-11-29T06:44:36.868Z,1.1
2017-11-29T06:45:43.775Z,1.1
2017-11-29T06:46:50.686Z,1.1
2017-11-29T06:47:57.866Z,1.1
2017-11-29T06:49:05.048Z,1.2
2017-11-29T06:50:11.690Z,1.1
2017-11-29T06:51:18.604Z,1.1
2017-11-29T06:52:25.786Z,1.1
2017-11-29T06:53:32.976Z,1.1
2017-11-29T06:54:40.163Z,1.2
2017-11-29T06:55:47.344Z,1.2
2017-11-29T06:56:54.529Z,1.2
2017-11-29T06:58:01.715Z,1.2
2017-11-29T06:59:08.900Z,1.2
2017-11-29T07:00:15.813Z,1.2
2017-11-29T07:01:23.000Z,1.2
2017-11-29T07:02:29.641Z,1.3
2017-11-29T07:03:36.572Z,1.3
2017-11-29T07:04:43.766Z,1.3
2017-11-29T07:05:50.977Z,1.3
2017-11-29T07:06:58.163Z,1.3
2017-11-29T07:08:05.351Z,1.4
2017-11-29T07:09:12.259Z,1.4
2017-11-29T07:10:19.447Z,1.4
2017-11-29T07:11:26.364Z,1.4
2017-11-29T07:12:33.277Z,1.4
2017-11-29T07:13:40.470Z,1.4
2017-11-29T07:14:47.102Z,1.4
2017-11-29T07:15:54.295Z,1.4
2017-11-29T07:17:01.487Z,1.4
2017-11-29T07:18:08.395Z,1.4
2017-11-29T07:19:15.308Z,1.4
2017-11-29T07:20:22.521Z,1.4
2017-11-29T07:21:29.429Z,1.4
2017-11-29T07:22:36.344Z,1.4
2017-11-29T07:23:43.533Z,1.4
2017-11-29T07:24:50.950Z,1.4
2017-11-29T07:25:58.135Z,1.4
2017-11-29T07:27:05.043Z,1.4
2017-11-29T07:28:12.235Z,1.4
2017-11-29T07:29:19.434Z,1.5
2017-11-29T07:30:26.332Z,1.5
2017-11-29T07:31:33.243Z,1.5
2017-11-29T07:32:40.435Z,1.5
2017-11-29T07:33:47.616Z,1.5
2017-11-29T07:34:54.803Z,1.5
2017-11-29T07:36:01.995Z,1.5
2017-11-29T07:37:10.375Z,1.6
2017-11-29T07:38:17.290Z,1.5
2017-11-29T07:39:24.208Z,1.5
2017-11-29T07:40:31.390Z,1.6
2017-11-29T07:41:38.587Z,1.6
2017-11-29T07:42:45.768Z,1.6
2017-11-29T07:43:52.959Z,1.6
2017-11-29T07:45:00.147Z,1.6
2017-11-29T07:46:07.060Z,1.6
2017-11-29T07:47:13.696Z,1.6
2017-11-29T07:48:20.619Z,1.6
2017-11-29T07:49:27.811Z,1.6
2017-11-29T07:50:35.004Z,1.6
2017-11-29T07:51:41.913Z,1.6
2017-11-29T07:52:48.842Z,1.6
2017-11-29T07:53:56.031Z,1.6
2017-11-29T07:55:03.219Z,1.6
2017-11-29T07:56:09.851Z,1.7
2017-11-29T07:57:17.037Z,1.7
2017-11-29T07:58:24.231Z,1.7
2017-11-29T07:59:31.147Z,1.7
2017-11-29T08:00:38.061Z,1.7
2017-11-29T08:01:45.257Z,1.7
2017-11-29T08:02:52.444Z,1.7
2017-11-29T08:03:59.359Z,1.7
2017-11-29T08:05:06.269Z,1.8
2017-11-29T08:06:12.903Z,1.8
2017-11-29T08:07:19.823Z,1.8
2017-11-29T08:08:26.745Z,1.9
2017-11-29T08:09:33.373Z,1.8
2017-11-29T08:10:40.558Z,1.8
2017-11-29T08:11:47.497Z,1.8
2017-11-29T08:12:54.686Z,1.9
2017-11-29T08:14:01.870Z,1.9
2017-11-29T08:15:09.054Z,1.9
2017-11-29T08:16:16.245Z,2
2017-11-29T08:17:22.600Z,2
2017-11-29T08:18:29.790Z,2.1
2017-11-29T08:19:36.975Z,2.1
2017-11-29T08:20:44.162Z,2.2
2017-11-29T08:21:51.349Z,2.1
2017-11-29T08:22:58.254Z,2.2
2017-11-29T08:24:05.174Z,2.2
2017-11-29T08:25:12.616Z,2.2
2017-11-29T08:26:19.798Z,2.2
2017-11-29T08:27:26.990Z,2.2
2017-11-29T08:28:33.896Z,2.2
2017-11-29T08:29:40.818Z,2.3
2017-11-29T08:30:47.456Z,2.3
2017-11-29T08:31:54.645Z,2.3
2017-11-29T08:33:01.839Z,2.3
2017-11-29T08:34:09.052Z,2.3
2017-11-29T08:35:16.242Z,2.4
2017-11-29T08:36:23.426Z,2.4
2017-11-29T08:37:30.616Z,2.4
2017-11-29T08:38:37.803Z,2.4
2017-11-29T08:39:44.992Z,2.4
2017-11-29T08:40:52.178Z,2.4
2017-11-29T08:41:59.365Z,2.5
2017-11-29T08:43:06.553Z,2.5
2017-11-29T08:44:13.742Z,2.6
2017-11-29T08:45:20.932Z,2.6
2017-11-29T08:46:28.120Z,2.6
2017-11-29T08:47:35.309Z,2.6
2017-11-29T08:48:42.221Z,2.6
2017-11-29T08:49:49.403Z,2.7
2017-11-29T08:50:56.607Z,2.7
2017-11-29T08:52:03.803Z,2.7
2017-11-29T08:53:10.718Z,2.6
2017-11-29T08:54:17.905Z,2.7
2017-11-29T08:55:24.816Z,2.6
2017-11-29T08:56:31.737Z,2.7
2017-11-29T08:57:38.650Z,2.7
2017-11-29T08:58:45.557Z,2.7
2017-11-29T08:59:52.745Z,2.7
2017-11-29T09:00:59.930Z,2.7
2017-11-29T09:02:07.122Z,2.7
2017-11-29T09:03:14.311Z,2.7
2017-11-29T09:04:21.229Z,2.7
2017-11-29T09:05:28.138Z,2.8
2017-11-29T09:06:35.052Z,2.8
2017-11-29T09:07:42.242Z,2.8
2017-11-29T09:08:49.181Z,2.8
2017-11-29T09:09:56.611Z,2.8
2017-11-29T09:11:03.800Z,2.8
2017-11-29T09:12:10.717Z,2.8
2017-11-29T09:13:17.907Z,2.8
2017-11-29T09:14:24.820Z,2.8
2017-11-29T09:15:32.009Z,2.9
2017-11-29T09:16:39.209Z,2.9
2017-11-29T09:17:46.397Z,2.9
2017-11-29T09:18:53.308Z,2.9
2017-11-29T09:20:00.500Z,2.9
2017-11-29T09:21:07.404Z,2.8
2017-11-29T09:22:14.592Z,2.8
2017-11-29T09:23:21.782Z,2.8
2017-11-29T09:24:28.693Z,2.9
2017-11-29T09:25:35.603Z,2.9
2017-11-29T09:26:42.522Z,3
2017-11-29T09:27:49.429Z,3
2017-11-29T09:28:56.619Z,3
2017-11-29T09:30:03.806Z,3
2017-11-29T09:31:10.737Z,3
2017-11-29T09:32:17.652Z,3
2017-11-29T09:33:24.853Z,3
2017-11-29T09:34:32.090Z,3
2017-11-29T09:35:39.000Z,3
2017-11-29T09:36:45.634Z,3
2017-11-29T09:37:52.267Z,3
2017-11-29T09:38:59.455Z,3
2017-11-29T09:40:06.650Z,3
2017-11-29T09:41:13.555Z,3
2017-11-29T09:42:20.752Z,3.1
2017-11-29T09:43:27.930Z,3.1
2017-11-29T09:44:35.121Z,3.2
2017-11-29T09:45:41.770Z,3.1
2017-11-29T09:46:48.687Z,3.2
2017-11-29T09:47:55.872Z,3.2
2017-11-29T09:49:03.060Z,3.2
2017-11-29T09:50:09.973Z,3.2
2017-11-29T09:51:17.172Z,3.3
2017-11-29T09:52:23.809Z,3.3
2017-11-29T09:53:30.999Z,3.3
2017-11-29T09:54:38.187Z,3.2
2017-11-29T09:55:45.419Z,3.2
2017-11-29T09:56:52.612Z,3.2
2017-11-29T09:57:59.803Z,3.2
2017-11-29T09:59:06.998Z,3.3
2017-11-29T10:00:14.189Z,3.3
2017-11-29T10:01:21.378Z,3.4
2017-11-29T10:02:28.568Z,3.4
2017-11-29T10:03:35.756Z,3.4
2017-11-29T10:04:42.665Z,3.4
2017-11-29T10:05:49.855Z,3.4
2017-11-29T10:06:57.103Z,3.4
2017-11-29T10:08:04.297Z,3.5
2017-11-29T10:09:11.485Z,3.4
2017-11-29T10:10:18.676Z,3.4
2017-11-29T10:11:25.867Z,3.4
2017-11-29T10:12:32.777Z,3.4
2017-11-29T10:13:39.966Z,3.4
2017-11-29T10:14:46.877Z,3.5
2017-11-29T10:15:53.789Z,3.5
2017-11-29T10:17:15.627Z,3.4
2017-11-29T10:18:22.558Z,3.4
2017-11-29T10:19:29.772Z,3.5
2017-11-29T10:20:36.685Z,3.5
2017-11-29T10:21:43.597Z,3.5
2017-11-29T10:22:50.506Z,3.5
2017-11-29T10:23:57.144Z,3.5
2017-11-29T10:25:04.057Z,3.5
2017-11-29T10:26:11.279Z,3.5
2017-11-29T10:27:18.460Z,3.4
2017-11-29T10:28:25.650Z,3.4
2017-11-29T10:29:32.837Z,3.4
2017-11-29T10:30:40.026Z,3.4
2017-11-29T10:31:46.666Z,3.4
2017-11-29T10:32:53.857Z,3.4
2017-11-29T10:34:01.049Z,3.4
2017-11-29T10:35:07.965Z,3.4
2017-11-29T10:36:15.157Z,3.4
2017-11-29T10:37:22.349Z,3.4
2017-11-29T10:38:28.997Z,3.5
2017-11-29T10:39:36.181Z,3.5
2017-11-29T10:40:43.097Z,3.5
2017-11-29T10:41:50.287Z,3.5
2017-11-29T10:42:57.474Z,3.5
2017-11-29T10:44:04.663Z,3.5
2017-11-29T10:45:11.572Z,3.6
2017-11-29T10:46:18.483Z,3.6
2017-11-29T10:47:25.400Z,3.6
2017-11-29T10:48:32.591Z,3.5
2017-11-29T10:49:39.777Z,3.6
2017-11-29T10:50:46.405Z,3.6
2017-11-29T10:51:53.607Z,3.6
2017-11-29T10:53:00.795Z,3.5
2017-11-29T10:54:07.719Z,3.6
2017-11-29T10:55:14.907Z,3.5
2017-11-29T10:56:22.093Z,3.5
2017-11-29T10:57:29.281Z,3.5
2017-11-29T10:58:36.194Z,3.5
2017-11-29T10:59:43.114Z,3.5
2017-11-29T11:00:50.303Z,3.4
2017-11-29T11:01:57.213Z,3.5
2017-11-29T11:03:04.140Z,3.4
2017-11-29T11:04:11.051Z,3.4
2017-11-29T11:05:18.262Z,3.4
2017-11-29T11:06:25.177Z,3.4
2017-11-29T11:07:32.369Z,3.4
2017-11-29T11:08:39.277Z,3.4
2017-11-29T11:09:46.189Z,3.4
2017-11-29T11:10:53.098Z,3.4
2017-11-29T11:12:00.311Z,3.5
2017-11-29T11:13:07.236Z,3.5
2017-11-29T11:14:13.878Z,3.5
2017-11-29T11:15:21.078Z,3.6
2017-11-29T11:16:27.990Z,3.5
2017-11-29T11:17:34.631Z,3.5
2017-11-29T11:18:41.819Z,3.5
2017-11-29T11:19:49.005Z,3.5
2017-11-29T11:20:55.917Z,3.5
2017-11-29T11:22:02.848Z,3.4
2017-11-29T11:23:10.045Z,3.5
2017-11-29T11:24:16.689Z,3.5
2017-11-29T11:25:23.876Z,3.5
2017-11-29T11:26:31.066Z,3.5
2017-11-29T11:27:38.269Z,3.5
2017-11-29T11:28:45.176Z,3.5
2017-11-29T11:29:52.367Z,3.5
2017-11-29T11:30:59.283Z,3.5
2017-11-29T11:32:06.479Z,3.5
2017-11-29T11:33:13.118Z,3.5
2017-11-29T11:34:20.317Z,3.6
2017-11-29T11:35:27.554Z,3.6
2017-11-29T11:36:34.526Z,3.6
2017-11-29T11:37:41.706Z,3.7
2017-11-29T11:38:48.907Z,3.7
2017-11-29T11:39:55.813Z,3.7
2017-11-29T11:41:03.037Z,3.7
2017-11-29T11:42:09.985Z,3.6
2017-11-29T11:43:17.173Z,3.6
2017-11-29T11:44:24.093Z,3.6
2017-11-29T11:45:30.744Z,3.6
2017-11-29T11:46:37.657Z,3.6
2017-11-29T11:47:44.848Z,3.7
2017-11-29T11:48:52.039Z,3.7
2017-11-29T11:49:58.958Z,3.7
2017-11-29T11:51:05.880Z,3.8
2017-11-29T11:52:12.799Z,3.8
2017-11-29T11:53:19.987Z,3.9
2017-11-29T11:54:26.896Z,4
2017-11-29T11:55:34.089Z,4
2017-11-29T11:56:41.301Z,4
2017-11-29T11:57:48.497Z,3.9
2017-11-29T11:58:55.406Z,3.9
2017-11-29T12:00:02.316Z,3.9
2017-11-29T12:01:08.924Z,3.9
2017-11-29T12:02:16.121Z,3.9
2017-11-29T12:03:23.312Z,3.9
2017-11-29T12:04:30.511Z,3.9
2017-11-29T12:05:37.703Z,4
2017-11-29T12:06:44.650Z,3.9
2017-11-29T12:07:51.844Z,3.8
2017-11-29T12:08:59.031Z,3.8
2017-11-29T12:10:05.947Z,3.7
2017-11-29T12:11:13.142Z,3.7
2017-11-29T12:12:20.329Z,3.7
2017-11-29T12:13:27.519Z,3.7
2017-11-29T12:14:34.440Z,3.7
2017-11-29T12:15:41.359Z,3.8
2017-11-29T12:16:48.278Z,3.8
2017-11-29T12:17:55.467Z,3.8
2017-11-29T12:19:02.656Z,3.8
2017-11-29T12:20:09.845Z,3.8
2017-11-29T12:21:17.034Z,3.8
2017-11-29T12:22:23.961Z,3.8
2017-11-29T12:23:31.147Z,3.8
2017-11-29T12:24:38.330Z,3.8
2017-11-29T12:25:45.557Z,3.7
2017-11-29T12:26:52.741Z,3.7
2017-11-29T12:27:59.928Z,3.8
2017-11-29T12:29:06.853Z,3.8
2017-11-29T12:30:14.045Z,3.8
2017-11-29T12:31:20.957Z,3.8
2017-11-29T12:32:27.599Z,3.8
2017-11-29T12:33:34.790Z,3.7
2017-11-29T12:34:41.700Z,3.7
2017-11-29T12:35:48.898Z,3.8
2017-11-29T12:36:56.081Z,3.8
2017-11-29T12:38:03.282Z,3.8
2017-11-29T12:39:10.462Z,3.8
2017-11-29T12:40:17.650Z,3.8
2017-11-29T12:41:24.565Z,3.8
2017-11-29T12:42:31.472Z,3.8
2017-11-29T12:43:38.660Z,3.8
2017-11-29T12:44:45.850Z,3.8
2017-11-29T12:45:53.039Z,3.8
2017-11-29T12:46:59.958Z,3.8
2017-11-29T12:48:06.869Z,3.9
2017-11-29T12:49:13.783Z,3.9
2017-11-29T12:50:20.997Z,3.9
2017-11-29T12:51:27.915Z,4
2017-11-29T12:52:34.832Z,4
2017-11-29T12:53:42.037Z,4.2
2017-11-29T12:54:49.213Z,4.2
2017-11-29T12:55:56.127Z,4.2
2017-11-29T12:57:03.316Z,4.2
2017-11-29T12:58:10.229Z,4.2
2017-11-29T12:59:17.457Z,4.2
2017-11-29T13:00:24.670Z,4.2
2017-11-29T13:01:31.605Z,4.2
2017-11-29T13:02:38.799Z,4.2
2017-11-29T13:03:45.987Z,4.2
2017-11-29T13:04:52.898Z,4.2
2017-11-29T13:05:59.808Z,4.2
2017-11-29T13:07:07.000Z,4.1
2017-11-29T13:08:14.190Z,4.1
2017-11-29T13:09:21.385Z,4.1
2017-11-29T13:10:28.579Z,4
2017-11-29T13:11:35.774Z,4
2017-11-29T13:12:42.696Z,4
2017-11-29T13:13:49.616Z,4
2017-11-29T13:14:56.541Z,3.9
2017-11-29T13:16:03.732Z,4
2017-11-29T13:17:10.650Z,4
2017-11-29T13:18:17.850Z,4
2017-11-29T13:19:25.044Z,4
2017-11-29T13:20:31.981Z,4
2017-11-29T13:21:39.169Z,4
2017-11-29T13:22:46.085Z,4
2017-11-29T13:23:53.287Z,4
2017-11-29T13:25:00.483Z,3.9
2017-11-29T13:26:07.397Z,4
2017-11-29T13:27:14.308Z,4
2017-11-29T13:28:21.225Z,3.9
2017-11-29T13:29:28.139Z,3.8
2017-11-29T13:30:35.333Z,3.8
2017-11-29T13:31:42.564Z,3.8
2017-11-29T13:32:49.747Z,3.8
2017-11-29T13:33:56.940Z,3.8
2017-11-29T13:35:03.860Z,3.8
2017-11-29T13:36:11.060Z,3.8
2017-11-29T13:37:18.251Z,3.8
2017-11-29T13:38:25.441Z,3.8
2017-11-29T13:39:32.075Z,3.8
2017-11-29T13:40:39.265Z,3.8
2017-11-29T13:41:45.903Z,3.8
2017-11-29T13:42:53.130Z,3.8
2017-11-29T13:44:00.325Z,3.8
2017-11-29T13:45:07.530Z,3.8
2017-11-29T13:46:14.732Z,3.8
2017-11-29T13:47:21.374Z,3.7
2017-11-29T13:48:28.565Z,3.7
2017-11-29T13:49:35.756Z,3.6
2017-11-29T13:50:42.967Z,3.6
2017-11-29T13:51:50.155Z,3.7
2017-11-29T13:52:57.072Z,3.7
2017-11-29T13:54:04.270Z,3.6
2017-11-29T13:55:11.179Z,3.6
2017-11-29T13:56:18.091Z,3.7
2017-11-29T13:57:25.277Z,3.7
2017-11-29T13:58:32.193Z,3.7
2017-11-29T13:59:39.386Z,3.7
2017-11-29T14:00:46.580Z,3.7
2017-11-29T14:01:53.499Z,3.7
2017-11-29T14:03:00.690Z,3.7
2017-11-29T14:04:07.897Z,3.7
2017-11-29T14:05:14.812Z,3.8
2017-11-29T14:06:22.017Z,3.7
2017-11-29T14:07:28.659Z,3.7
2017-11-29T14:08:35.574Z,3.7
2017-11-29T14:09:42.774Z,3.7
2017-11-29T14:10:49.955Z,3.7
2017-11-29T14:11:56.884Z,3.7
2017-11-29T14:13:03.817Z,3.7
2017-11-29T14:14:10.451Z,3.7
2017-11-29T14:15:17.643Z,3.7
2017-11-29T14:16:24.831Z,3.7
2017-11-29T14:17:32.028Z,3.7
2017-11-29T14:18:39.213Z,3.7
2017-11-29T14:19:46.128Z,3.7
2017-11-29T14:20:53.319Z,3.7
2017-11-29T14:22:00.238Z,3.7
2017-11-29T14:23:07.423Z,3.7
2017-11-29T14:24:14.626Z,3.7
2017-11-29T14:25:21.554Z,3.7
2017-11-29T14:26:28.743Z,3.7
2017-11-29T14:27:35.652Z,3.7
2017-11-29T14:28:42.902Z,3.7
2017-11-29T14:29:50.089Z,3.7
2017-11-29T14:30:57.283Z,3.7
2017-11-29T14:32:04.478Z,3.7
2017-11-29T14:33:11.669Z,3.7
2017-11-29T14:34:18.308Z,3.6
2017-11-29T14:35:25.495Z,3.6
2017-11-29T14:36:32.735Z,3.6
2017-11-29T14:37:39.663Z,3.7
2017-11-29T14:38:46.587Z,3.7
2017-11-29T14:39:53.525Z,3.7
2017-11-29T14:41:00.442Z,3.7
2017-11-29T14:42:07.354Z,3.7
2017-11-29T14:43:14.271Z,3.7
2017-11-29T14:44:21.190Z,3.7
2017-11-29T14:45:28.112Z,3.7
2017-11-29T14:46:35.300Z,3.7
2017-11-29T14:47:42.532Z,3.7
2017-11-29T14:48:49.440Z,3.7
2017-11-29T14:49:56.632Z,3.6
2017-11-29T14:51:03.819Z,3.6
2017-11-29T14:52:11.009Z,3.7
2017-11-29T14:53:17.916Z,3.6
2017-11-29T14:54:25.131Z,3.6
2017-11-29T14:55:32.321Z,3.6
2017-11-29T14:56:38.683Z,3.6
2017-11-29T14:57:45.603Z,3.5
2017-11-29T14:58:52.522Z,3.4
2017-11-29T14:59:59.715Z,3.4
2017-11-29T15:01:06.907Z,3.4
2017-11-29T15:02:13.825Z,3.4
2017-11-29T15:03:20.455Z,3.4
2017-11-29T15:04:27.370Z,3.3
2017-11-29T15:05:34.560Z,3.3
2017-11-29T15:06:41.743Z,3.3
2017-11-29T15:07:48.933Z,3.3
2017-11-29T15:08:56.126Z,3.3
2017-11-29T15:10:03.331Z,3.3
2017-11-29T15:11:09.683Z,3.1
2017-11-29T15:12:16.603Z,3.1
2017-11-29T15:13:23.790Z,3.1
2017-11-29T15:14:30.705Z,3
2017-11-29T15:15:37.337Z,3
2017-11-29T15:16:44.532Z,2.9
2017-11-29T15:17:51.448Z,2.9
2017-11-29T15:18:58.640Z,2.9
2017-11-29T15:20:05.552Z,2.9
2017-11-29T15:21:12.465Z,3
2017-11-29T15:22:19.657Z,3
2017-11-29T15:23:26.589Z,3
2017-11-29T15:24:33.774Z,3
2017-11-29T15:25:40.964Z,3.1
2017-11-29T15:26:48.160Z,3.1
2017-11-29T15:27:55.350Z,3.1
2017-11-29T15:29:02.262Z,3.1
2017-11-29T15:30:09.456Z,3
2017-11-29T15:31:16.645Z,3
2017-11-29T15:32:23.573Z,3
2017-11-29T15:33:30.497Z,2.9
2017-11-29T15:34:37.416Z,2.9
2017-11-29T15:35:44.607Z,2.9